Kvitbjoern — LM9158 — position and weather

sailwx.info

Track history (hours):
 
Tides and Currents Weather Stations Pressure Air Temp Water Temp Dewpoint Dewpoint Depression Visibility Wind Speed Wind Dir Waves Ship Positions

Kvitbjoern

Last reported at 2014-Aug-22 10:22 UTC. Time now 2014-Aug-22 19:43 UTC.
Position N 66°22' E 012°21'.

Length 10 m.

Type: Fishing. MMSI: 257454420.

Date/timePositionNaut miles runAvg speedWind from/ knotsBaromVisibWave heightAir tempDewpointWater temp
2014-Aug-22 10:22N 66°22' E 012°21'0 0.0
2014-Aug-22 09:28N 66°22' E 012°21'0 0.0
2014-Aug-22 08:28N 66°22' E 012°21'2 1.9
2014-Aug-22 07:30N 66°24' E 012°24'0 0.2
2014-Aug-22 06:33N 66°24' E 012°23'1 0.1
2014-Aug-21 15:34N 66°23' E 012°26'2 1.2
2014-Aug-21 13:28N 66°24' E 012°32'3 2.8
2014-Aug-21 12:25N 66°22' E 012°26'1 1.3
2014-Aug-21 11:31N 66°24' E 012°26'0 0.0
2014-Aug-21 10:30N 66°24' E 012°26'0 0.1
2014-Aug-21 09:26N 66°23' E 012°26'1 0.8
2014-Aug-21 08:29N 66°23' E 012°25'0 0.3
2014-Aug-21 07:28N 66°23' E 012°24'0 0.1
2014-Aug-21 06:26N 66°23' E 012°24'1 0.8
2014-Aug-21 05:28N 66°22' E 012°23'0 0.1
2014-Aug-21 04:29N 66°22' E 012°23'0 0.5
2014-Aug-21 03:34N 66°21' E 012°23'0 0.3
2014-Aug-21 02:33N 66°21' E 012°23'1 0.1
2014-Aug-20 14:29N 66°22' E 012°21'5 5.1
2014-Aug-20 13:31N 66°24' E 012°33'0 0.3
2014-Aug-20 12:18N 66°23' E 012°34'3 4.0
2014-Aug-20 11:27N 66°22' E 012°26'1 0.9
2014-Aug-20 10:32N 66°23' E 012°24'0 0.4
2014-Aug-20 09:33N 66°23' E 012°25'0 0.3
2014-Aug-20 08:22N 66°23' E 012°26'1 1.1
2014-Aug-20 07:31N 66°23' E 012°24'0 0.1
2014-Aug-20 06:32N 66°23' E 012°23'1 1.4
2014-Aug-20 05:33N 66°22' E 012°23'0 0.3
2014-Aug-20 04:31N 66°22' E 012°22'0 0.4
2014-Aug-20 03:33N 66°21' E 012°23'0 0.2
2014-Aug-20 02:33N 66°22' E 012°23'1 0.1
2014-Aug-19 14:29N 66°22' E 012°21'0 0.0
2014-Aug-19 13:29N 66°22' E 012°21'5 5.5
2014-Aug-19 12:31N 66°23' E 012°34'0 0.2
2014-Aug-19 11:11N 66°23' E 012°35'3 5.4
2014-Aug-19 10:33N 66°22' E 012°27'0 0.4
2014-Aug-19 09:27N 66°23' E 012°26'1 0.7
2014-Aug-19 08:20N 66°23' E 012°26'1 1.4
2014-Aug-19 07:33N 66°23' E 012°24'0 0.1
2014-Aug-19 06:33N 66°23' E 012°24'0 0.3
2014-Aug-19 05:33N 66°22' E 012°24'0 0.3
2014-Aug-19 04:31N 66°22' E 012°24'1 0.9
2014-Aug-19 03:33N 66°22' E 012°22'1 0.5
2014-Aug-19 02:30N 66°22' E 012°23'1 0.0
2014-Aug-18 15:33N 66°22' E 012°22'5 2.1
2014-Aug-18 13:14N 66°21' E 012°34'3 4.4
2014-Aug-18 12:32N 66°22' E 012°27'0 0.3
2014-Aug-18 11:30N 66°22' E 012°26'1 0.9
2014-Aug-18 10:30N 66°23' E 012°26'0 0.2
2014-Aug-18 09:29N 66°23' E 012°26'0 0.1
2014-Aug-18 08:30N 66°23' E 012°26'1 0.8
2014-Aug-18 07:26N 66°23' E 012°24'1 0.7
2014-Aug-18 06:24N 66°23' E 012°24'0 0.3
2014-Aug-18 05:33N 66°22' E 012°23'1 0.6
2014-Aug-18 04:33N 66°22' E 012°23'0 0.3
2014-Aug-18 03:29N 66°22' E 012°22'0 0.3
2014-Aug-18 02:33N 66°21' E 012°23'1 0.1
2014-Aug-17 13:17N 66°22' E 012°21'0 0.0
2014-Aug-17 12:29N 66°22' E 012°21'0 0.0
2014-Aug-17 11:29N 66°22' E 012°21'1 0.6
2014-Aug-17 10:33N 66°22' E 012°22'3 2.4
2014-Aug-17 09:24N 66°19' E 012°25'0 0.3
2014-Aug-17 08:30N 66°19' E 012°25'3 3.4
2014-Aug-17 07:33N 66°22' E 012°23'0 0.0
2014-Aug-16 17:24N 66°22' E 012°21'0 0.0
2014-Aug-16 16:30N 66°22' E 012°21'3 3.2
2014-Aug-16 15:29N 66°20' E 012°25'2 2.1
2014-Aug-16 14:31N 66°21' E 012°24'1 0.0
2014-Aug-14 15:32N 66°22' E 012°21'6 5.6
2014-Aug-14 14:28N 66°22' E 012°36'1 0.9
2014-Aug-14 13:24N 66°23' E 012°35'4 4.2
2014-Aug-14 12:31N 66°23' E 012°26'0 0.1
2014-Aug-14 11:30N 66°22' E 012°26'1 1.0
2014-Aug-14 10:27N 66°24' E 012°26'1 0.9
2014-Aug-14 09:32N 66°23' E 012°25'0 0.3
2014-Aug-14 08:28N 66°23' E 012°24'0 0.2
2014-Aug-14 07:28N 66°23' E 012°24'0 0.3
2014-Aug-14 06:33N 66°22' E 012°24'0 0.4
2014-Aug-14 05:32N 66°22' E 012°24'1 0.7
2014-Aug-14 04:30N 66°22' E 012°22'1 0.5
2014-Aug-14 03:33N 66°22' E 012°23'1 0.1
2014-Aug-13 15:32N 66°22' E 012°21'2 2.4
2014-Aug-13 14:33N 66°22' E 012°27'1 0.6
2014-Aug-13 12:32N 66°23' E 012°29'2 1.1
2014-Aug-13 11:10N 66°23' E 012°26'0 0.4
2014-Aug-13 10:29N 66°23' E 012°26'0 0.3
2014-Aug-13 09:27N 66°23' E 012°26'0 0.2
2014-Aug-13 08:28N 66°23' E 012°26'1 0.9
2014-Aug-13 07:30N 66°23' E 012°24'0 0.1
2014-Aug-13 06:30N 66°23' E 012°24'1 1.5
2014-Aug-13 05:31N 66°22' E 012°23'0 0.4
2014-Aug-13 04:30N 66°21' E 012°23'0 0.2
2014-Aug-13 03:33N 66°22' E 012°22'1 0.1
2014-Aug-12 15:15N 66°22' E 012°21'3 4.7
2014-Aug-12 14:33N 66°22' E 012°29'3 1.9
2014-Aug-12 13:05N 66°23' E 012°35'3 5.6
2014-Aug-12 12:33N 66°23' E 012°27'1 0.4
2014-Aug-12 11:15N 66°23' E 012°26'1 1.2
2014-Aug-12 10:28N 66°23' E 012°24'  
Track history (hours):
 
Tides and Currents Weather Stations Pressure Air Temp Water Temp Dewpoint Dewpoint Depression Visibility Wind Speed Wind Dir Waves Ship Positions

Kvitbjoern

Last reported at 2014-Aug-22 10:22 UTC. Time now 2014-Aug-22 19:43 UTC.
Position N 66°22' E 012°21'.

Length 10 m.

Type: Fishing. MMSI: 257454420.

Date/timePositionNaut miles runAvg speedWind from/ knotsBaromVisibWave heightAir tempDewpointWater temp
2014-Aug-22 10:22N 66°22' E 012°21'0 0.0
2014-Aug-22 09:28N 66°22' E 012°21'0 0.0
2014-Aug-22 08:28N 66°22' E 012°21'2 1.9
2014-Aug-22 07:30N 66°24' E 012°24'0 0.2
2014-Aug-22 06:33N 66°24' E 012°23'1 0.1
2014-Aug-21 15:34N 66°23' E 012°26'2 1.2
2014-Aug-21 13:28N 66°24' E 012°32'3 2.8
2014-Aug-21 12:25N 66°22' E 012°26'1 1.3
2014-Aug-21 11:31N 66°24' E 012°26'0 0.0
2014-Aug-21 10:30N 66°24' E 012°26'0 0.1
2014-Aug-21 09:26N 66°23' E 012°26'1 0.8
2014-Aug-21 08:29N 66°23' E 012°25'0 0.3
2014-Aug-21 07:28N 66°23' E 012°24'0 0.1
2014-Aug-21 06:26N 66°23' E 012°24'1 0.8
2014-Aug-21 05:28N 66°22' E 012°23'0 0.1
2014-Aug-21 04:29N 66°22' E 012°23'0 0.5
2014-Aug-21 03:34N 66°21' E 012°23'0 0.3
2014-Aug-21 02:33N 66°21' E 012°23'1 0.1
2014-Aug-20 14:29N 66°22' E 012°21'5 5.1
2014-Aug-20 13:31N 66°24' E 012°33'0 0.3
2014-Aug-20 12:18N 66°23' E 012°34'3 4.0
2014-Aug-20 11:27N 66°22' E 012°26'1 0.9
2014-Aug-20 10:32N 66°23' E 012°24'0 0.4
2014-Aug-20 09:33N 66°23' E 012°25'0 0.3
2014-Aug-20 08:22N 66°23' E 012°26'1 1.1
2014-Aug-20 07:31N 66°23' E 012°24'0 0.1
2014-Aug-20 06:32N 66°23' E 012°23'1 1.4
2014-Aug-20 05:33N 66°22' E 012°23'0 0.3
2014-Aug-20 04:31N 66°22' E 012°22'0 0.4
2014-Aug-20 03:33N 66°21' E 012°23'0 0.2
2014-Aug-20 02:33N 66°22' E 012°23'1 0.1
2014-Aug-19 14:29N 66°22' E 012°21'0 0.0
2014-Aug-19 13:29N 66°22' E 012°21'5 5.5
2014-Aug-19 12:31N 66°23' E 012°34'0 0.2
2014-Aug-19 11:11N 66°23' E 012°35'3 5.4
2014-Aug-19 10:33N 66°22' E 012°27'0 0.4
2014-Aug-19 09:27N 66°23' E 012°26'1 0.7
2014-Aug-19 08:20N 66°23' E 012°26'1 1.4
2014-Aug-19 07:33N 66°23' E 012°24'0 0.1
2014-Aug-19 06:33N 66°23' E 012°24'0 0.3
2014-Aug-19 05:33N 66°22' E 012°24'0 0.3
2014-Aug-19 04:31N 66°22' E 012°24'1 0.9
2014-Aug-19 03:33N 66°22' E 012°22'1 0.5
2014-Aug-19 02:30N 66°22' E 012°23'1 0.0
2014-Aug-18 15:33N 66°22' E 012°22'5 2.1
2014-Aug-18 13:14N 66°21' E 012°34'3 4.4
2014-Aug-18 12:32N 66°22' E 012°27'0 0.3
2014-Aug-18 11:30N 66°22' E 012°26'1 0.9
2014-Aug-18 10:30N 66°23' E 012°26'0 0.2
2014-Aug-18 09:29N 66°23' E 012°26'0 0.1
2014-Aug-18 08:30N 66°23' E 012°26'1 0.8
2014-Aug-18 07:26N 66°23' E 012°24'1 0.7
2014-Aug-18 06:24N 66°23' E 012°24'0 0.3
2014-Aug-18 05:33N 66°22' E 012°23'1 0.6
2014-Aug-18 04:33N 66°22' E 012°23'0 0.3
2014-Aug-18 03:29N 66°22' E 012°22'0 0.3
2014-Aug-18 02:33N 66°21' E 012°23'1 0.1
2014-Aug-17 13:17N 66°22' E 012°21'0 0.0
2014-Aug-17 12:29N 66°22' E 012°21'0 0.0
2014-Aug-17 11:29N 66°22' E 012°21'1 0.6
2014-Aug-17 10:33N 66°22' E 012°22'3 2.4
2014-Aug-17 09:24N 66°19' E 012°25'0 0.3
2014-Aug-17 08:30N 66°19' E 012°25'3 3.4
2014-Aug-17 07:33N 66°22' E 012°23'0 0.0
2014-Aug-16 17:24N 66°22' E 012°21'0 0.0
2014-Aug-16 16:30N 66°22' E 012°21'3 3.2
2014-Aug-16 15:29N 66°20' E 012°25'2 2.1
2014-Aug-16 14:31N 66°21' E 012°24'1 0.0
2014-Aug-14 15:32N 66°22' E 012°21'6 5.6
2014-Aug-14 14:28N 66°22' E 012°36'1 0.9
2014-Aug-14 13:24N 66°23' E 012°35'4 4.2
2014-Aug-14 12:31N 66°23' E 012°26'0 0.1
2014-Aug-14 11:30N 66°22' E 012°26'1 1.0
2014-Aug-14 10:27N 66°24' E 012°26'1 0.9
2014-Aug-14 09:32N 66°23' E 012°25'0 0.3
2014-Aug-14 08:28N 66°23' E 012°24'0 0.2
2014-Aug-14 07:28N 66°23' E 012°24'0 0.3
2014-Aug-14 06:33N 66°22' E 012°24'0 0.4
2014-Aug-14 05:32N 66°22' E 012°24'1 0.7
2014-Aug-14 04:30N 66°22' E 012°22'1 0.5
2014-Aug-14 03:33N 66°22' E 012°23'1 0.1
2014-Aug-13 15:32N 66°22' E 012°21'2 2.4
2014-Aug-13 14:33N 66°22' E 012°27'1 0.6
2014-Aug-13 12:32N 66°23' E 012°29'2 1.1
2014-Aug-13 11:10N 66°23' E 012°26'0 0.4
2014-Aug-13 10:29N 66°23' E 012°26'0 0.3
2014-Aug-13 09:27N 66°23' E 012°26'0 0.2
2014-Aug-13 08:28N 66°23' E 012°26'1 0.9
2014-Aug-13 07:30N 66°23' E 012°24'0 0.1
2014-Aug-13 06:30N 66°23' E 012°24'1 1.5
2014-Aug-13 05:31N 66°22' E 012°23'0 0.4
2014-Aug-13 04:30N 66°21' E 012°23'0 0.2
2014-Aug-13 03:33N 66°22' E 012°22'1 0.1
2014-Aug-12 15:15N 66°22' E 012°21'3 4.7
2014-Aug-12 14:33N 66°22' E 012°29'3 1.9
2014-Aug-12 13:05N 66°23' E 012°35'3 5.6
2014-Aug-12 12:33N 66°23' E 012°27'1 0.4
2014-Aug-12 11:15N 66°23' E 012°26'1 1.2
2014-Aug-12 10:28N 66°23' E 012°24'  

Dump ship's entire track history